Time;durP1;ratioP1;P1;durP2;ratioP2;P2;SDS_P1;SDS_P2;PMS_P1;PMS_P2;Temp;Humidity;BMP_temperature;BMP_pressure;BME280_temperature;BME280_humidity;BME280_pressure;Samples;Min_cycle;Max_cycle;Signal;HPM_P1;HPM_P2
2023/12/24 00:01:29;;;;;;;10.13;1.90;;;;;;;8.28;100.00;101207.69;5031871;28;20434;-74
2023/12/24 00:03:54;;;;;;;19.17;2.67;;;;;;;7.75;100.00;101081.88;5018282;28;20608;-74
2023/12/24 00:06:20;;;;;;;9.60;2.67;;;;;;;7.79;100.00;101101.06;5026925;28;20274;-74
2023/12/24 00:08:46;;;;;;;13.00;2.57;;;;;;;8.18;100.00;101173.16;5013591;28;20294;-74
2023/12/24 00:11:11;;;;;;;11.10;3.00;;;;;;;8.17;100.00;101147.44;5029555;28;20971;-74
2023/12/24 00:13:37;;;;;;;11.67;2.77;;;;;;;7.78;100.00;101076.19;5012138;28;20192;-75
2023/12/24 00:16:02;;;;;;;10.73;2.60;;;;;;;7.57;100.00;101019.88;5028185;28;20211;-74
2023/12/24 00:18:28;;;;;;;12.70;3.13;;;;;;;8.22;100.00;101149.59;5031526;28;20911;-74
2023/12/24 00:20:53;;;;;;;13.17;2.97;;;;;;;8.30;100.00;101146.84;5010740;28;20251;-74
2023/12/24 00:23:19;;;;;;;10.57;2.93;;;;;;;8.09;100.00;101084.19;5027422;28;20180;-75
2023/12/24 00:25:44;;;;;;;11.03;2.50;;;;;;;8.32;100.00;101104.75;5009084;28;20187;-74
2023/12/24 00:28:10;;;;;;;7.97;2.47;;;;;;;8.34;100.00;101086.72;5026810;28;20207;-75
2023/12/24 00:30:36;;;;;;;12.00;2.70;;;;;;;8.07;100.00;101026.59;5028337;28;20346;-74
2023/12/24 00:33:01;;;;;;;15.10;3.60;;;;;;;7.92;100.00;101003.31;5013052;28;20192;-74
2023/12/24 00:35:27;;;;;;;11.37;2.73;;;;;;;8.32;100.00;101054.81;5024918;28;20438;-74
2023/12/24 00:37:55;;;;;;;16.67;2.63;;;;;;;8.06;100.00;100990.22;5029437;28;20200;-74
2023/12/24 00:40:21;;;;;;;13.80;2.73;;;;;;;8.34;100.00;101043.94;5031680;28;20195;-74
2023/12/24 00:42:47;;;;;;;7.97;2.70;;;;;;;8.26;100.00;101026.13;5028558;28;20454;-74
2023/12/24 00:45:12;;;;;;;11.70;2.80;;;;;;;8.33;100.00;101036.91;5027530;28;20450;-76
2023/12/24 00:47:39;;;;;;;14.53;3.50;;;;;;;8.23;100.00;101013.13;5004832;28;20260;-74
2023/12/24 00:50:09;;;;;;;16.77;3.47;;;;;;;8.29;100.00;101033.78;5036930;28;20577;-74
2023/12/24 00:52:35;;;;;;;14.30;3.47;;;;;;;8.30;100.00;101018.56;5010990;28;20476;-74
2023/12/24 00:55:01;;;;;;;9.00;2.60;;;;;;;8.34;100.00;101034.09;4990211;28;20446;-74
2023/12/24 00:57:26;;;;;;;12.23;2.97;;;;;;;7.97;100.00;100977.94;5031450;28;20476;-74
2023/12/24 00:59:52;;;;;;;13.43;3.20;;;;;;;8.05;100.00;101008.09;5011644;28;20622;-74
2023/12/24 01:02:17;;;;;;;15.10;3.20;;;;;;;8.06;100.00;101007.06;5026774;28;20188;-74
2023/12/24 01:04:43;;;;;;;17.80;3.00;;;;;;;7.97;100.00;100952.03;5032254;28;20234;-74
2023/12/24 01:07:08;;;;;;;15.67;3.70;;;;;;;8.20;100.00;100981.41;5034122;28;20234;-74
2023/12/24 01:09:36;;;;;;;15.40;3.60;;;;;;;8.40;100.00;100955.06;5029671;28;20220;-74
2023/12/24 01:12:01;;;;;;;13.00;2.90;;;;;;;8.22;100.00;100920.63;5025390;28;20227;-74
2023/12/24 01:14:26;;;;;;;11.60;3.30;;;;;;;8.23;100.00;100884.84;5025276;28;20452;-74
2023/12/24 01:16:52;;;;;;;13.03;4.20;;;;;;;7.88;100.00;100825.75;5024224;28;20207;-74
2023/12/24 01:19:17;;;;;;;10.43;2.70;;;;;;;8.42;100.00;100896.91;5011868;28;20230;-74
2023/12/24 01:21:42;;;;;;;12.93;2.90;;;;;;;7.66;100.00;100762.53;5025390;28;20188;-74
2023/12/24 01:24:08;;;;;;;14.47;2.83;;;;;;;8.04;100.00;100811.41;5008796;28;20191;-74
2023/12/24 01:26:36;;;;;;;16.20;3.43;;;;;;;8.20;100.00;100831.78;5020917;28;20215;-75
2023/12/24 01:29:02;;;;;;;12.37;2.87;;;;;;;8.43;100.00;100857.63;5007360;28;20208;-75
2023/12/24 01:31:27;;;;;;;17.13;3.17;;;;;;;7.93;100.00;100772.63;5026228;28;20451;-75
2023/12/24 01:33:53;;;;;;;11.00;2.93;;;;;;;7.70;100.00;100707.78;5007646;28;20192;-75
2023/12/24 01:36:20;;;;;;;9.90;2.43;;;;;;;8.46;100.00;100822.50;5022343;28;20270;-75
2023/12/24 01:38:48;;;;;;;13.53;2.70;;;;;;;8.18;100.00;100812.41;5023830;28;20705;-75
2023/12/24 01:41:14;;;;;;;10.27;2.60;;;;;;;7.59;100.00;100705.56;5027971;28;20442;-75
2023/12/24 01:43:43;;;;;;;10.20;2.40;;;;;;;8.31;100.00;100817.97;5004899;28;20442;-74
2023/12/24 01:46:11;;;;;;;10.30;2.60;;;;;;;8.41;100.00;100840.94;5028485;28;20208;-75
2023/12/24 01:48:38;;;;;;;9.80;2.70;;;;;;;8.13;100.00;100821.00;5010578;28;20904;-75
2023/12/24 01:51:04;;;;;;;13.60;2.47;;;;;;;8.42;100.00;100829.22;5032990;28;20457;-75
2023/12/24 01:53:31;;;;;;;11.77;2.63;;;;;;;8.42;100.00;100827.41;5029315;28;20820;-75
2023/12/24 01:55:58;;;;;;;10.17;2.50;;;;;;;8.43;100.00;100813.00;5011130;28;20197;-75
2023/12/24 01:58:24;;;;;;;11.00;2.70;;;;;;;8.30;100.00;100820.81;5011681;28;20442;-75
2023/12/24 02:00:50;;;;;;;8.23;2.13;;;;;;;8.43;100.00;100814.88;5008822;28;20822;-75
2023/12/24 02:03:17;;;;;;;14.67;2.40;;;;;;;8.17;100.00;100776.03;5031941;28;20450;-75
2023/12/24 02:05:46;;;;;;;12.20;2.40;;;;;;;8.43;100.00;100823.72;5028747;28;20552;-74
2023/12/24 02:08:14;;;;;;;12.97;2.93;;;;;;;8.34;100.00;100832.81;5017762;28;20560;-74
2023/12/24 02:10:40;;;;;;;11.33;2.70;;;;;;;7.97;100.00;100766.91;5026004;28;20540;-73
2023/12/24 02:13:06;;;;;;;12.37;2.60;;;;;;;8.31;100.00;100831.34;5007268;28;20617;-73
2023/12/24 02:15:32;;;;;;;9.17;2.53;;;;;;;8.17;100.00;100824.13;5031297;28;20454;-77
2023/12/24 02:17:59;;;;;;;6.70;1.87;;;;;;;7.83;100.00;100764.03;5025499;28;20215;-74
2023/12/24 02:20:25;;;;;;;10.50;2.57;;;;;;;8.38;100.00;100867.00;5015445;28;20176;-74
2023/12/24 02:22:52;;;;;;;11.90;2.27;;;;;;;8.36;100.00;100879.72;5015144;28;20435;-74
2023/12/24 02:25:17;;;;;;;10.23;2.23;;;;;;;8.36;100.00;100885.06;5030490;28;20480;-74
2023/12/24 02:27:52;;;;;;;10.27;2.37;;;;;;;8.37;100.00;100902.75;5032883;28;20549;-74
2023/12/24 02:30:26;;;;;;;8.07;2.07;;;;;;;8.38;100.00;100914.28;5031187;28;20191;-74
2023/12/24 02:32:56;;;;;;;9.63;2.00;;;;;;;8.34;100.00;100903.13;5028432;28;20450;-73
2023/12/24 02:35:25;;;;;;;14.10;2.80;;;;;;;8.23;100.00;100890.19;5015455;28;20443;-74
2023/12/24 02:37:51;;;;;;;6.60;1.90;;;;;;;8.36;100.00;100903.78;5031223;28;20489;-73
2023/12/24 02:40:16;;;;;;;9.40;2.30;;;;;;;7.83;100.00;100820.13;5035186;28;20879;-74
2023/12/24 02:42:42;;;;;;;7.43;1.93;;;;;;;7.75;100.00;100833.53;5030153;28;20183;-73
2023/12/24 02:45:08;;;;;;;7.50;2.07;;;;;;;8.33;100.00;100890.78;5011109;28;20207;-74
2023/12/24 02:47:33;;;;;;;7.73;2.80;;;;;;;8.26;100.00;100873.81;5009182;28;21356;-74
2023/12/24 02:49:58;;;;;;;8.90;2.57;;;;;;;8.20;100.00;100866.53;5014889;28;20215;-73
2023/12/24 02:52:24;;;;;;;7.73;2.13;;;;;;;7.95;100.00;100833.03;5031822;28;20576;-74
2023/12/24 02:54:49;;;;;;;7.10;1.60;;;;;;;8.21;100.00;100875.34;5033930;28;20183;-74
2023/12/24 02:57:15;;;;;;;7.63;1.87;;;;;;;8.40;100.00;100866.84;5028443;28;20261;-75
2023/12/24 02:59:41;;;;;;;8.20;1.80;;;;;;;8.42;100.00;100864.81;5027984;28;20180;-74
2023/12/24 03:02:06;;;;;;;9.10;2.07;;;;;;;8.26;100.00;100839.06;5028677;28;20457;-75
2023/12/24 03:04:32;;;;;;;7.10;2.07;;;;;;;8.03;100.00;100776.88;5025606;28;20224;-76
2023/12/24 03:06:57;;;;;;;7.97;2.13;;;;;;;8.45;100.00;100816.34;5008631;28;20637;-75
2023/12/24 03:09:22;;;;;;;7.93;1.90;;;;;;;8.44;100.00;100779.09;5027287;28;20208;-74
2023/12/24 03:11:48;;;;;;;12.50;2.70;;;;;;;8.12;100.00;100693.75;5031621;28;20203;-75
2023/12/24 03:14:13;;;;;;;9.37;3.80;;;;;;;8.29;100.00;100686.38;5023964;28;20641;-74
2023/12/24 03:16:39;;;;;;;11.23;2.83;;;;;;;8.47;100.00;100703.88;5025698;28;20211;-74
2023/12/24 03:19:04;;;;;;;9.60;2.30;;;;;;;8.47;100.00;100645.88;5023731;28;20604;-74
2023/12/24 03:21:30;;;;;;;8.57;2.20;;;;;;;8.08;100.00;100528.72;5011631;28;20290;-74
2023/12/24 03:23:55;;;;;;;9.80;2.77;;;;;;;8.50;100.00;100572.50;5030375;28;20370;-75
2023/12/24 03:26:21;;;;;;;8.97;2.17;;;;;;;8.50;100.00;100532.41;5023881;28;20727;-75
2023/12/24 03:28:50;;;;;;;8.60;2.00;;;;;;;8.51;100.00;100480.63;5028871;28;20235;-74
2023/12/24 03:31:17;;;;;;;7.97;2.10;;;;;;;8.48;100.00;100444.41;5031950;28;20536;-74
2023/12/24 03:33:43;;;;;;;7.40;2.20;;;;;;;8.43;100.00;100411.28;5026333;28;20442;-75
2023/12/24 03:36:09;;;;;;;7.83;2.10;;;;;;;8.07;100.00;100345.41;5031201;28;20991;-74
2023/12/24 03:38:35;;;;;;;10.83;2.30;;;;;;;8.52;100.00;100394.88;5027651;28;20442;-75
2023/12/24 03:41:00;;;;;;;11.30;2.60;;;;;;;7.95;100.00;100297.03;5012149;28;20434;-74
2023/12/24 03:43:26;;;;;;;8.63;2.23;;;;;;;8.51;100.00;100368.38;5026890;28;20453;-74
2023/12/24 03:45:52;;;;;;;12.00;2.63;;;;;;;8.54;100.00;100315.31;5028712;28;20207;-74
2023/12/24 03:48:17;;;;;;;8.43;2.20;;;;;;;8.17;100.00;100136.72;5027928;28;20582;-74
2023/12/24 03:50:43;;;;;;;8.00;2.20;;;;;;;8.47;100.00;100137.22;5030537;28;20200;-74
2023/12/24 03:53:08;;;;;;;9.30;2.20;;;;;;;8.07;100.00;100064.94;5030566;28;20710;-74
2023/12/24 03:55:34;;;;;;;8.10;1.80;;;;;;;8.47;100.00;100127.34;5028101;28;20942;-74
2023/12/24 03:57:59;;;;;;;8.00;1.97;;;;;;;8.40;100.00;100121.19;5023045;28;20207;-74
2023/12/24 04:00:25;;;;;;;7.57;1.87;;;;;;;8.42;100.00;100123.66;5025587;28;20201;-74
2023/12/24 04:02:52;;;;;;;6.00;1.60;;;;;;;8.35;100.00;100112.91;5011697;28;20187;-73
2023/12/24 04:05:17;;;;;;;8.03;1.37;;;;;;;8.58;100.00;100161.53;5006809;28;20202;-74
2023/12/24 04:07:43;;;;;;;6.13;1.40;;;;;;;8.61;100.00;100154.94;5008262;28;20991;-74
2023/12/24 04:10:08;;;;;;;6.70;1.60;;;;;;;8.52;100.00;100150.81;5027473;28;20207;-73
2023/12/24 04:12:35;;;;;;;5.50;1.27;;;;;;;8.61;100.00;100168.31;5029588;28;20192;-74
2023/12/24 04:15:00;;;;;;;8.23;1.30;;;;;;;8.34;100.00;100130.81;5030709;28;20214;-73
2023/12/24 04:17:26;;;;;;;6.87;1.40;;;;;;;8.58;100.00;100158.84;5024873;28;20470;-74
2023/12/24 04:19:51;;;;;;;6.63;1.30;;;;;;;8.46;100.00;100143.63;5004262;28;20241;-74
2023/12/24 04:22:17;;;;;;;5.13;1.23;;;;;;;8.36;100.00;100131.44;5030401;28;20215;-74
2023/12/24 04:24:44;;;;;;;4.93;1.17;;;;;;;8.50;100.00;100147.53;5028839;28;20230;-74
2023/12/24 04:27:11;;;;;;;6.73;1.20;;;;;;;8.67;100.00;100169.34;5012144;28;20705;-74
2023/12/24 04:29:36;;;;;;;5.30;0.90;;;;;;;7.95;100.00;100051.38;5028664;28;20917;-74
2023/12/24 04:32:02;;;;;;;6.70;1.37;;;;;;;8.63;100.00;100174.28;5030540;28;20434;-73
2023/12/24 04:34:27;;;;;;;4.77;1.07;;;;;;;8.23;100.00;100114.53;5026091;28;20306;-73
2023/12/24 04:36:54;;;;;;;5.37;1.13;;;;;;;8.42;100.00;100257.28;5008467;28;20208;-73
2023/12/24 04:39:19;;;;;;;5.50;1.00;;;;;;;8.25;100.00;100273.63;5025308;28;20673;-74
2023/12/24 04:41:44;;;;;;;5.93;1.30;;;;;;;8.33;100.00;100281.47;5027965;28;20449;-73
2023/12/24 04:44:10;;;;;;;4.57;0.80;;;;;;;8.68;100.00;100336.75;5005357;28;20265;-74
2023/12/24 04:46:45;;;;;;;6.53;1.50;;;;;;;8.55;100.00;100324.97;5023986;28;20239;-74
2023/12/24 04:49:10;;;;;;;4.33;1.00;;;;;;;8.62;100.00;100346.44;5004614;28;20294;-74
2023/12/24 04:51:36;;;;;;;4.23;1.47;;;;;;;8.66;100.00;100354.88;5025602;28;20484;-73
2023/12/24 04:54:03;;;;;;;5.20;0.90;;;;;;;8.01;100.00;100277.56;5009368;28;20188;-74
2023/12/24 04:56:29;;;;;;;4.73;1.00;;;;;;;8.72;100.00;100402.19;5028785;28;20213;-74
2023/12/24 04:58:56;;;;;;;5.90;1.33;;;;;;;8.32;100.00;100327.91;5009085;28;20431;-74
2023/12/24 05:01:22;;;;;;;5.20;1.10;;;;;;;8.54;100.00;100365.28;5009579;28;20456;-74
2023/12/24 05:03:48;;;;;;;5.60;1.50;;;;;;;8.48;100.00;100366.09;5024630;28;20971;-74
2023/12/24 05:06:13;;;;;;;5.03;1.50;;;;;;;8.42;100.00;100327.59;5022807;28;20200;-74
2023/12/24 05:08:41;;;;;;;6.17;1.87;;;;;;;8.78;100.00;100370.13;5007350;28;20213;-74
2023/12/24 05:11:08;;;;;;;5.30;1.30;;;;;;;8.52;100.00;100303.19;5009910;28;20294;-75
2023/12/24 05:13:37;;;;;;;4.63;1.20;;;;;;;8.77;100.00;100316.88;5005367;28;20442;-74
2023/12/24 05:16:06;;;;;;;6.73;1.30;;;;;;;8.81;100.00;100288.69;5029360;28;20480;-75
2023/12/24 05:18:35;;;;;;;5.20;1.40;;;;;;;8.36;100.00;100189.38;5026158;28;20453;-74
2023/12/24 05:21:00;;;;;;;5.30;1.10;;;;;;;8.09;100.00;100135.84;5029949;28;20477;-74
2023/12/24 05:23:26;;;;;;;4.00;1.00;;;;;;;8.75;100.00;100201.25;5030926;28;20600;-74
2023/12/24 05:25:52;;;;;;;7.60;1.53;;;;;;;8.79;100.00;100178.41;5010862;28;20183;-74
2023/12/24 05:28:18;;;;;;;6.80;1.27;;;;;;;8.67;100.00;100116.69;5009634;28;20204;-74
2023/12/24 05:30:44;;;;;;;5.03;1.23;;;;;;;8.76;100.00;100103.97;5023287;28;20504;-74
2023/12/24 05:33:10;;;;;;;4.60;1.10;;;;;;;8.78;100.00;100059.13;5029334;28;21115;-75
2023/12/24 05:35:35;;;;;;;4.17;1.00;;;;;;;8.57;100.00;100020.06;5021916;28;20497;-74
2023/12/24 05:38:01;;;;;;;4.50;1.40;;;;;;;8.26;100.00;99949.31;5023743;28;20734;-74
2023/12/24 05:40:26;;;;;;;4.27;0.97;;;;;;;8.89;100.00;100030.94;5023718;28;20189;-74
2023/12/24 05:42:51;;;;;;;6.77;1.10;;;;;;;8.89;100.00;100015.72;5005150;28;20298;-73
2023/12/24 05:45:17;;;;;;;5.53;1.53;;;;;;;8.59;100.00;99948.50;5010639;28;20187;-74
2023/12/24 05:47:42;;;;;;;5.40;1.47;;;;;;;8.46;100.00;99917.25;5022641;28;20207;-75
2023/12/24 05:50:08;;;;;;;5.77;1.30;;;;;;;8.93;100.00;99990.19;5022939;28;20208;-75
2023/12/24 05:52:34;;;;;;;7.17;1.20;;;;;;;8.59;100.00;99906.56;5007601;28;20397;-75
2023/12/24 05:55:00;;;;;;;5.00;1.40;;;;;;;8.98;100.00;99952.94;5024791;28;20194;-73
2023/12/24 05:57:26;;;;;;;6.27;1.40;;;;;;;8.99;100.00;99943.88;5010389;28;20207;-73
2023/12/24 05:59:51;;;;;;;6.10;1.40;;;;;;;8.71;100.00;99889.88;5027949;28;21125;-74
2023/12/24 06:02:20;;;;;;;5.60;1.50;;;;;;;8.81;100.00;99880.38;5025948;28;20188;-74
2023/12/24 06:04:45;;;;;;;5.87;1.10;;;;;;;8.84;100.00;99833.69;5027708;28;20227;-74
2023/12/24 06:07:11;;;;;;;6.10;1.60;;;;;;;8.93;100.00;99811.00;5026707;28;20435;-74
2023/12/24 06:09:36;;;;;;;5.55;1.35;;;;;;;9.01;100.00;99829.50;5029849;28;20215;-75
2023/12/24 06:12:02;;;;;;;5.50;1.37;;;;;;;9.04;100.00;99826.38;5028845;28;20232;-76
2023/12/24 06:14:28;;;;;;;6.83;1.50;;;;;;;8.53;100.00;99733.69;5025907;28;20188;-74
2023/12/24 06:16:53;;;;;;;6.77;1.60;;;;;;;8.96;100.00;99799.88;5024120;28;20466;-74
2023/12/24 06:19:18;;;;;;;6.53;1.60;;;;;;;9.08;100.00;99809.91;5028361;28;20185;-74
2023/12/24 06:21:44;;;;;;;6.57;1.57;;;;;;;8.81;100.00;99784.13;5031567;28;20192;-74
2023/12/24 06:24:09;;;;;;;6.10;2.00;;;;;;;8.81;100.00;99794.00;5030936;28;20196;-75
2023/12/24 06:26:35;;;;;;;5.57;1.53;;;;;;;8.93;100.00;99821.69;5008439;28;20207;-73
2023/12/24 06:29:00;;;;;;;7.53;2.67;;;;;;;8.58;100.00;99747.19;5028171;28;20693;-75
2023/12/24 06:31:26;;;;;;;7.30;2.13;;;;;;;9.17;100.00;99848.75;5023301;28;20196;-75
2023/12/24 06:33:51;;;;;;;7.53;1.97;;;;;;;9.12;100.00;99888.72;5024880;28;20196;-75
2023/12/24 06:36:17;;;;;;;6.23;2.17;;;;;;;9.18;100.00;99926.13;5029387;28;20237;-74
2023/12/24 06:38:43;;;;;;;9.23;2.10;;;;;;;9.22;100.00;99954.09;5030155;28;20191;-74
2023/12/24 06:41:09;;;;;;;7.10;2.20;;;;;;;8.82;100.00;99895.41;5031101;28;20438;-73
2023/12/24 06:43:36;;;;;;;10.33;2.20;;;;;;;9.15;100.00;99934.59;5029633;28;20187;-74
2023/12/24 06:46:01;;;;;;;10.50;2.60;;;;;;;8.96;100.00;99903.38;5028335;28;20466;-74
2023/12/24 06:48:27;;;;;;;9.77;2.47;;;;;;;8.92;100.00;99904.84;5027771;28;20450;-74
2023/12/24 06:50:52;;;;;;;9.90;2.50;;;;;;;8.98;100.00;99962.84;5030475;28;20217;-76
2023/12/24 06:53:18;;;;;;;9.20;2.50;;;;;;;9.23;100.00;99950.41;5031460;28;20215;-73
2023/12/24 06:55:43;;;;;;;7.33;2.53;;;;;;;8.97;100.00;99937.94;5029970;28;20933;-75
2023/12/24 06:58:09;;;;;;;11.27;2.93;;;;;;;9.26;100.00;99976.75;5033819;28;20199;-74
2023/12/24 07:00:34;;;;;;;10.60;2.33;;;;;;;9.07;100.00;99958.91;5032935;28;20223;-74
2023/12/24 07:03:00;;;;;;;13.60;3.20;;;;;;;9.16;100.00;99962.97;5036725;28;20649;-74
2023/12/24 07:05:25;;;;;;;11.27;2.97;;;;;;;9.24;100.00;99968.09;5029584;28;20199;-74
2023/12/24 07:07:51;;;;;;;9.00;2.53;;;;;;;9.31;100.00;99965.41;5010595;28;20214;-74
2023/12/24 07:10:16;;;;;;;7.13;2.90;;;;;;;9.11;100.00;99945.91;5029753;28;20200;-75
2023/12/24 07:12:42;;;;;;;13.67;2.70;;;;;;;8.48;100.00;99844.91;5011386;28;20200;-74
2023/12/24 07:15:08;;;;;;;11.77;2.87;;;;;;;9.14;100.00;99924.09;5033655;28;20191;-74
2023/12/24 07:17:33;;;;;;;14.50;2.77;;;;;;;9.36;100.00;99957.56;5028926;28;20208;-75
2023/12/24 07:20:00;;;;;;;8.83;2.90;;;;;;;9.40;100.00;99956.13;5028124;28;20442;-74
2023/12/24 07:22:25;;;;;;;13.90;2.80;;;;;;;9.33;100.00;99962.53;5035860;28;20270;-73
2023/12/24 07:24:51;;;;;;;10.10;2.80;;;;;;;8.74;100.00;99898.31;5034186;28;20450;-74
2023/12/24 07:27:16;;;;;;;9.93;2.07;;;;;;;9.34;100.00;99996.25;5032045;28;20214;-74
2023/12/24 07:29:42;;;;;;;14.60;3.23;;;;;;;8.97;100.00;99959.34;5031203;28;20628;-74
2023/12/24 07:32:08;;;;;;;8.90;2.53;;;;;;;8.91;100.00;99976.22;5029714;28;20746;-74
2023/12/24 07:34:34;;;;;;;11.70;3.17;;;;;;;8.82;100.00;99958.75;5028555;28;20442;-74
2023/12/24 07:36:59;;;;;;;10.20;3.40;;;;;;;8.74;100.00;99935.75;5025280;28;20231;-74
2023/12/24 07:39:25;;;;;;;9.17;2.57;;;;;;;9.47;100.00;100036.38;5012562;28;20185;-74
2023/12/24 07:41:51;;;;;;;10.70;3.70;;;;;;;8.82;100.00;99923.97;5028743;28;20454;-74
2023/12/24 07:44:17;;;;;;;12.27;3.40;;;;;;;9.31;100.00;99991.34;5030917;28;20199;-73
2023/12/24 07:46:44;;;;;;;9.30;3.40;;;;;;;9.46;100.00;100022.19;5011654;28;20271;-74
2023/12/24 07:49:09;;;;;;;10.93;3.50;;;;;;;9.47;100.00;100015.78;5032875;28;20470;-74
2023/12/24 07:51:35;;;;;;;13.07;2.97;;;;;;;9.31;100.00;99967.25;5031775;28;20944;-73
2023/12/24 07:54:03;;;;;;;13.77;4.17;;;;;;;9.17;100.00;99935.22;5030873;28;20218;-74
2023/12/24 07:56:29;;;;;;;17.03;3.33;;;;;;;8.98;100.00;99907.47;5030774;28;20635;-74
2023/12/24 07:58:55;;;;;;;11.47;3.37;;;;;;;9.46;100.00;99983.88;5032010;28;20426;-74
2023/12/24 08:01:20;;;;;;;11.90;2.70;;;;;;;9.00;100.00;99892.06;5027850;28;20924;-74
2023/12/24 08:03:46;;;;;;;11.93;3.27;;;;;;;9.66;100.00;99998.00;5031036;28;20270;-73
2023/12/24 08:06:11;;;;;;;8.43;2.80;;;;;;;9.69;100.00;100012.81;5032763;28;20203;-74
2023/12/24 08:08:37;;;;;;;11.83;3.47;;;;;;;9.28;100.00;99974.66;5033398;28;20239;-74
2023/12/24 08:11:02;;;;;;;16.00;4.30;;;;;;;9.51;100.00;99981.38;5036021;28;20200;-73
2023/12/24 08:13:28;;;;;;;12.03;3.03;;;;;;;9.30;100.00;99954.91;5021930;28;20194;-74
2023/12/24 08:15:53;;;;;;;17.67;3.33;;;;;;;9.72;100.00;100031.16;5038212;28;20180;-74
2023/12/24 08:18:18;;;;;;;13.60;3.63;;;;;;;9.37;100.00;99975.25;5029517;28;20192;-74
2023/12/24 08:20:44;;;;;;;11.33;2.77;;;;;;;9.61;100.00;99983.63;5031833;28;20195;-74
2023/12/24 08:23:10;;;;;;;18.63;3.20;;;;;;;9.57;100.00;99991.22;5036067;28;20181;-73
2023/12/24 08:25:36;;;;;;;14.43;2.87;;;;;;;9.66;100.00;100023.94;5014572;28;20952;-74
2023/12/24 08:28:02;;;;;;;15.40;3.93;;;;;;;8.90;100.00;99907.72;5035404;28;20998;-74
2023/12/24 08:30:28;;;;;;;17.20;3.30;;;;;;;9.70;100.00;100012.59;5034406;28;20561;-74
2023/12/24 08:32:53;;;;;;;11.80;3.10;;;;;;;9.74;100.00;99996.91;5035671;28;20453;-74
2023/12/24 08:35:19;;;;;;;16.17;3.40;;;;;;;9.78;100.00;99989.28;5022003;28;20184;-74
2023/12/24 08:37:44;;;;;;;12.50;3.60;;;;;;;9.64;100.00;99978.66;5026280;28;20223;-74
2023/12/24 08:40:11;;;;;;;20.50;3.37;;;;;;;9.58;100.00;99970.66;5008510;28;20200;-74
2023/12/24 08:42:36;;;;;;;14.17;3.00;;;;;;;9.38;100.00;99950.16;5023010;28;20275;-75
2023/12/24 08:45:02;;;;;;;12.20;3.23;;;;;;;9.47;100.00;99978.31;5004199;28;20445;-75
2023/12/24 08:47:27;;;;;;;11.53;3.20;;;;;;;9.20;100.00;99933.94;5022631;28;20208;-76
2023/12/24 08:49:53;;;;;;;14.07;3.20;;;;;;;9.70;100.00;100009.91;5032593;28;20214;-73
2023/12/24 08:52:18;;;;;;;14.63;3.57;;;;;;;9.30;100.00;99966.44;5038324;28;20259;-74
2023/12/24 08:54:43;;;;;;;9.03;3.47;;;;;;;9.13;100.00;99920.59;5010890;28;20287;-75
2023/12/24 08:57:09;;;;;;;11.90;3.93;;;;;;;9.79;100.00;100050.66;5004406;28;20587;-76
2023/12/24 08:59:34;;;;;;;12.63;3.67;;;;;;;9.28;100.00;99979.19;5011623;28;20234;-75
2023/12/24 09:02:00;;;;;;;8.90;2.93;;;;;;;9.71;100.00;100066.97;5025843;28;20191;-74
2023/12/24 09:04:25;;;;;;;18.20;4.20;;;;;;;9.65;100.00;100059.78;5029476;28;20227;-74
2023/12/24 09:06:50;;;;;;;12.20;3.33;;;;;;;9.82;100.00;100077.03;5026498;28;20598;-75
2023/12/24 09:09:16;;;;;;;10.87;2.90;;;;;;;9.42;100.00;100079.00;5012402;28;20689;-75
2023/12/24 09:11:41;;;;;;;10.30;3.67;;;;;;;9.34;100.00;100037.22;5027945;28;20212;-76
2023/12/24 09:14:07;;;;;;;10.50;3.23;;;;;;;9.48;100.00;100048.72;5023128;28;20242;-75
2023/12/24 09:16:32;;;;;;;10.53;2.80;;;;;;;9.82;100.00;100106.50;5025164;28;20207;-78
2023/12/24 09:18:58;;;;;;;13.50;3.73;;;;;;;9.71;100.00;100073.16;5010322;28;20180;-77
2023/12/24 09:21:23;;;;;;;13.03;3.80;;;;;;;9.83;100.00;100091.25;5003965;28;20207;-74
2023/12/24 09:23:49;;;;;;;10.00;3.17;;;;;;;9.61;100.00;100056.72;5010497;28;20271;-76
2023/12/24 09:26:14;;;;;;;14.83;3.97;;;;;;;9.79;100.00;100082.81;5025517;28;20224;-76
2023/12/24 09:28:40;;;;;;;20.83;4.33;;;;;;;9.52;100.00;100039.25;5024452;28;20655;-75
2023/12/24 09:31:05;;;;;;;10.50;3.10;;;;;;;9.78;100.00;100059.75;5012200;28;20288;-77
2023/12/24 09:33:32;;;;;;;14.90;3.37;;;;;;;9.88;100.00;100064.66;5022730;28;20246;-75
2023/12/24 09:35:57;;;;;;;12.87;3.17;;;;;;;9.87;100.00;100044.25;5028749;28;20191;-76
2023/12/24 09:38:23;;;;;;;18.30;4.27;;;;;;;9.73;100.00;100009.50;5029471;28;20437;-76
2023/12/24 09:40:49;;;;;;;15.90;3.90;;;;;;;9.66;100.00;100011.41;5026944;28;20634;-75
2023/12/24 09:43:14;;;;;;;13.13;3.43;;;;;;;9.64;100.00;99992.03;5025780;28;20199;-75
2023/12/24 09:45:40;;;;;;;12.10;3.60;;;;;;;9.71;100.00;99984.78;5028010;28;20206;-76
2023/12/24 09:48:06;;;;;;;11.10;3.40;;;;;;;9.95;100.00;100017.19;5028773;28;20202;-75
2023/12/24 09:50:31;;;;;;;20.27;4.43;;;;;;;8.98;100.00;99850.50;5028090;28;20446;-74
2023/12/24 09:52:58;;;;;;;12.03;3.30;;;;;;;9.37;100.00;99918.22;5033266;28;20310;-75
2023/12/24 09:55:24;;;;;;;14.90;3.63;;;;;;;9.99;100.00;100013.06;5028300;28;20215;-75
2023/12/24 09:57:49;;;;;;;13.53;3.90;;;;;;;9.89;100.00;99992.13;5028198;28;20459;-75
2023/12/24 10:00:15;;;;;;;19.83;3.70;;;;;;;10.02;100.00;100012.63;5031769;28;20233;-76
2023/12/24 10:02:40;;;;;;;15.70;4.40;;;;;;;9.93;100.00;99990.63;5025919;28;20579;-74
2023/12/24 10:05:06;;;;;;;10.20;2.90;;;;;;;9.94;100.00;99978.88;5006934;28;20446;-74
2023/12/24 10:07:39;;;;;;;13.13;4.10;;;;;;;9.58;100.00;99741.22;5024668;28;20199;-74
2023/12/24 10:10:07;;;;;;;15.03;3.33;;;;;;;9.71;100.00;99740.28;5029580;28;20211;-75
2023/12/24 10:12:32;;;;;;;16.33;3.63;;;;;;;9.88;100.00;99727.97;5024172;28;20527;-74
2023/12/24 10:14:58;;;;;;;10.70;3.50;;;;;;;9.14;100.00;99560.25;5023662;28;20477;-75
2023/12/24 10:17:28;;;;;;;10.80;3.90;;;;;;;9.50;100.00;99538.06;5016958;28;20250;-74
2023/12/24 10:19:53;;;;;;;13.13;3.47;;;;;;;10.08;100.00;100509.38;5025203;28;20180;-75
2023/12/24 10:22:23;;;;;;;12.70;3.70;;;;;;;10.02;100.00;100524.41;5007638;28;20430;-74
2023/12/24 10:24:49;;;;;;;14.83;3.70;;;;;;;10.14;100.00;100549.56;5025286;28;20195;-74
2023/12/24 10:27:15;;;;;;;15.53;4.20;;;;;;;9.83;100.00;100520.63;5012054;28;20825;-74
2023/12/24 10:29:42;;;;;;;11.40;2.93;;;;;;;10.14;100.00;100572.88;5037821;28;20551;-74
2023/12/24 10:32:11;;;;;;;17.20;4.70;;;;;;;10.11;100.00;100587.50;5020460;28;20466;-74
2023/12/24 10:34:38;;;;;;;13.17;3.27;;;;;;;9.38;100.00;100473.94;5031500;28;20434;-74
2023/12/24 10:37:17;;;;;;;11.33;3.03;;;;;;;9.95;100.00;100553.00;5034642;28;20569;-74
2023/12/24 10:39:43;;;;;;;10.80;3.00;;;;;;;10.18;100.00;100579.47;5029515;28;20426;-74
2023/12/24 10:42:09;;;;;;;11.17;3.40;;;;;;;10.03;100.00;100555.50;5016185;28;20440;-74
2023/12/24 10:44:34;;;;;;;16.60;3.87;;;;;;;9.85;100.00;100550.72;5030598;28;20211;-74
2023/12/24 10:46:59;;;;;;;14.40;4.00;;;;;;;10.23;100.00;100578.88;5010649;28;20188;-74
2023/12/24 10:49:25;;;;;;;13.57;3.00;;;;;;;10.13;100.00;100555.16;5026500;28;20208;-74
2023/12/24 10:51:50;;;;;;;14.37;3.43;;;;;;;10.25;100.00;100571.47;5033686;28;20210;-74
2023/12/24 10:54:16;;;;;;;16.10;3.87;;;;;;;9.96;100.00;100522.53;5008504;28;20192;-74
2023/12/24 10:57:13;;;;;;;10.37;3.30;;;;;;;10.33;100.00;100545.31;5028849;28;20665;-74
2023/12/24 11:00:14;;;;;;;12.80;3.30;;;;;;;10.34;100.00;100530.06;5032559;28;20215;-74
2023/12/24 11:02:47;;;;;;;22.50;4.03;;;;;;;10.33;100.00;100502.41;4952338;28;20445;-75
2023/12/24 11:05:46;;;;;;;13.70;3.73;;;;;;;10.39;100.00;100474.78;5001880;28;20438;-74
2023/12/24 11:08:20;;;;;;;17.03;3.93;;;;;;;10.40;100.00;100467.56;5032688;28;20431;-75
2023/12/24 11:10:56;;;;;;;11.37;3.30;;;;;;;10.39;100.00;100437.25;5011607;28;20983;-75
2023/12/24 11:13:36;;;;;;;15.57;3.20;;;;;;;10.53;100.00;100442.59;5036063;28;20429;-74
2023/12/24 11:16:04;;;;;;;13.03;3.30;;;;;;;10.53;100.00;100421.97;5032614;28;20508;-74
2023/12/24 11:18:46;;;;;;;13.20;3.07;;;;;;;10.62;100.00;100398.44;5029786;28;20517;-74